This is the latest recevied weather packets stored in our database for station/object KM6RDV. If no packets are shown the sender has not sent any weather packets the latest 10 day(s).
| Time | Temp. | Humidity | Pressure | Rain* | Wind** | Luminosity | Snow |
|---|---|---|---|---|---|---|---|
| 1777375827 | 9.44° C | 85% | 1022 hPa | 0 mm | - | 0 W/m² | - |
| 1777374023 | 10° C | 84% | 1021.7 hPa | 0 mm | - | 0 W/m² | - |
| 1777371638 | 10.56° C | 82% | 1021.6 hPa | 0 mm | - | 0 W/m² | - |
| 1777368615 | 10.56° C | 82% | 1022.2 hPa | 0 mm | - | 0 W/m² | - |
| 1777365021 | 10.56° C | 80% | 1022.3 hPa | 0 mm | - | 0 W/m² | - |
| 1777357820 | 11.67° C | 76% | 1022.4 hPa | 0 mm | - | 0 W/m² | - |
| 1777354828 | 12.22° C | 75% | 1022.4 hPa | 0 mm | - | - | - |
| 1777347627 | 13.33° C | 70% | 1021.6 hPa | 0 mm | - | 0 W/m² | - |
| 1777345224 | 13.89° C | 67% | 1021 hPa | 0 mm | - | 4 W/m² | - |
| 1777343428 | 14.44° C | 66% | 1020.8 hPa | 0 mm | - | 29 W/m² | - |
| 1777333217 | 17.78° C | 54% | 1019.9 hPa | 0 mm | - | 585 W/m² | - |
| 1777332016 | 17.78° C | 51% | 1019.9 hPa | 0 mm | - | 662 W/m² | - |
| 1777327221 | 16.67° C | 56% | 1020.2 hPa | 0 mm | - | 312 W/m² | - |
| 1777326622 | 17.78° C | 54% | 1020.3 hPa | 0 mm | - | 266 W/m² | - |
| 1777324221 | 17.78° C | 53% | 1020.3 hPa | 0 mm | - | 411 W/m² | - |
| 1777317618 | 17.22° C | 54% | 1020.5 hPa | 0 mm | - | 1025 W/m² | - |
| 1777314618 | 16.67° C | 54% | 1020.5 hPa | 0 mm | - | 947 W/m² | - |
| 1777310440 | 15.56° C | 58% | 1020.1 hPa | 0 mm | - | 572 W/m² | - |
| 1777308019 | 15° C | 60% | 1020 hPa | 0 mm | - | 581 W/m² | - |
| 1777307418 | 15° C | 60% | 1019.9 hPa | 0 mm | - | 359 W/m² | - |
| 1777302625 | 13.89° C | 68% | 1019.7 hPa | 0 mm | - | 179 W/m² | - |
| 1777300823 | 12.78° C | 76% | 1019.5 hPa | 0 mm | - | 122 W/m² | - |
| 1777300224 | 12.22° C | 78% | 1019.4 hPa | 0 mm | - | 97 W/m² | - |
* Rain latest hour (hover to see other rain measurements)
** Current wind speed in m/s (hover to see current wind gust speed)